Meath Environmental Platform

Observations for Trim Market St

Time AQI Temp °C Hum % Pres Pa CO μg/m³ H₂S μg/m³ NO μg/m³ NO₂ μg/m³ O₃ μg/m³ SO₂ μg/m³ PM1 μg/m³ PM2.5 μg/m³ PM10 μg/m³
Wednesday 26 August 2026
11:27 2 19.1 82 2,147,483,647 0.25 0 0.69 19.67 38.33 0 9.98 10.97 13.66
11:26 2 19 82 2,147,483,647 0.25 0 0.73 19.1 38.51 0 9.98 10.95 17.01
11:25 2 19 82 2,147,483,647 0.24 0 0.84 19.34 35.85 0 9.98 10.48 15.33
11:24 2 18.9 82 2,147,483,647 0.23 0 1.15 18.03 44.23 0 6.41 8.14 13.1
11:23 2 18.9 82 2,147,483,647 0.23 0 1.02 17.25 41.15 0 8.55 10.48 16.44
11:22 2 18.8 82 2,147,483,647 0.22 0 1.04 19.19 46.22 0 7.13 9.07 15.33
11:21 2 18.8 82 2,147,483,647 0.22 0 1.29 20.62 38.91 0 9.26 10.94 15.33
11:20 2 18.8 82 2,147,483,647 0.21 0 1.29 18.2 43.38 0 10.69 14.24 20.35
11:19 2 18.7 82 2,147,483,647 0.22 0 1.48 18.13 39.71 0 7.84 9.54 14.78
11:18 2 18.7 82 2,147,483,647 0.22 0 2.46 22.69 37.27 0 10.69 12.83 18.12
11:17 2 18.7 82 2,147,483,647 0.26 0 3.18 28.82 32.8 0 9.98 10.01 15.88
11:16 2 18.6 82 2,147,483,647 0.23 0 3.46 21.88 34.31 0 9.26 10.48 15.33
11:15 2 18.6 82 2,147,483,647 0.28 0 2.72 34.09 27.86 0 9.26 10.48 15.89
11:14 2 18.5 82 2,147,483,647 0.2 0 2.49 16.27 48.57 0 10.69 14.25 19.81
11:12 2 18.5 82 2,147,483,647 0.2 0 1.46 14.06 36.63 0 9.26 12.84 18.69
11:11 2 18.5 82 2,147,483,647 0.25 0 1.46 15.96 36.76 0 8.55 9.55 15.34
11:10 2 18.5 82 2,147,483,647 0.19 0 1.43 14.67 36.02 0 8.55 9.41 13.11
11:08 2 18.5 82 2,147,483,647 0.2 0 1.13 13.8 37.66 0 7.84 9.08 14.23
11:07 2 18.5 82 2,147,483,647 0.19 0 1.09 14.68 37.56 0 9.98 10.96 16.46
11:06 2 18.5 82 2,147,483,647 0.21 0 1.1 16.58 36.23 0 9.26 9.55 13.67